Time;durP1;ratioP1;P1;durP2;ratioP2;P2;SDS_P1;SDS_P2;PMS_P1;PMS_P2;Temp;Humidity;BMP_temperature;BMP_pressure;BME280_temperature;BME280_humidity;BME280_pressure;Samples;Min_cycle;Max_cycle;Signal;HPM_P1;HPM_P2
2023/08/18 00:01:22;;;;;;;7.63;6.43;;;20.70;99.90;;;;;;4964577;28;20187;-31
2023/08/18 00:03:50;;;;;;;9.38;6.78;;;20.70;99.90;;;;;;4989446;28;20191;-31
2023/08/18 00:06:15;;;;;;;7.93;6.93;;;20.60;99.90;;;;;;4971459;28;20193;-31
2023/08/18 00:08:42;;;;;;;7.28;6.55;;;20.60;99.90;;;;;;4973784;28;20242;-31
2023/08/18 00:11:08;;;;;;;11.38;7.20;;;20.60;99.90;;;;;;4965666;28;20274;-31
2023/08/18 00:13:34;;;;;;;7.65;6.50;;;20.50;99.90;;;;;;4987455;28;20181;-31
2023/08/18 00:16:00;;;;;;;7.00;6.30;;;20.60;99.90;;;;;;4984370;28;20194;-31
2023/08/18 00:18:26;;;;;;;7.95;7.20;;;20.60;99.90;;;;;;4986119;28;20224;-31
2023/08/18 00:20:52;;;;;;;7.90;7.30;;;20.50;99.90;;;;;;4998483;28;20184;-31
2023/08/18 00:23:18;;;;;;;7.15;6.50;;;20.50;99.90;;;;;;4991527;28;20188;-31
2023/08/18 00:25:44;;;;;;;9.10;6.93;;;20.50;99.90;;;;;;4968184;28;20189;-30
2023/08/18 00:28:10;;;;;;;11.88;7.63;;;20.50;99.90;;;;;;4996983;28;20698;-30
2023/08/18 00:30:36;;;;;;;7.88;7.13;;;20.50;99.90;;;;;;4975451;28;20222;-31
2023/08/18 00:33:03;;;;;;;8.35;7.47;;;20.50;99.90;;;;;;4971409;28;20184;-31
2023/08/18 00:35:29;;;;;;;10.15;7.90;;;20.50;99.90;;;;;;4997831;28;20175;-31
2023/08/18 00:37:55;;;;;;;8.27;7.22;;;20.40;99.90;;;;;;4992631;28;20230;-30
2023/08/18 00:40:24;;;;;;;8.93;7.20;;;20.40;99.90;;;;;;5009848;28;20179;-31
2023/08/18 00:42:50;;;;;;;8.65;7.70;;;20.30;99.90;;;;;;4984889;28;20191;-31
2023/08/18 00:45:16;;;;;;;10.52;7.45;;;20.30;99.90;;;;;;4992400;28;20206;-31
2023/08/18 00:47:43;;;;;;;10.48;7.32;;;20.20;99.90;;;;;;4983214;28;20216;-31
2023/08/18 00:50:13;;;;;;;8.40;7.15;;;20.00;99.90;;;;;;5009095;28;20180;-30
2023/08/18 00:52:42;;;;;;;9.02;7.80;;;20.00;99.90;;;;;;4985456;28;20217;-31
2023/08/18 00:55:10;;;;;;;7.07;6.47;;;19.90;99.90;;;;;;4992757;28;20183;-31
2023/08/18 00:57:38;;;;;;;10.23;6.80;;;19.90;99.90;;;;;;4985852;28;20223;-30
2023/08/18 01:00:05;;;;;;;8.00;6.57;;;19.80;99.90;;;;;;4985451;28;20219;-31
2023/08/18 01:02:31;;;;;;;7.93;7.13;;;19.70;99.90;;;;;;4983082;28;20192;-30
2023/08/18 01:05:00;;;;;;;10.40;7.40;;;19.80;99.90;;;;;;5009842;28;20187;-31
2023/08/18 01:07:26;;;;;;;7.68;6.95;;;19.80;99.90;;;;;;4985306;28;20222;-30
2023/08/18 01:09:56;;;;;;;9.73;7.78;;;19.80;99.90;;;;;;4984381;28;20187;-31
2023/08/18 01:12:42;;;;;;;8.93;6.85;;;19.80;99.90;;;;;;4986042;28;20179;-30
2023/08/18 01:15:27;;;;;;;7.40;6.75;;;19.80;99.90;;;;;;4981906;28;20186;-31
2023/08/18 01:18:01;;;;;;;7.18;6.25;;;19.80;99.90;;;;;;4977709;28;20223;-30
2023/08/18 01:20:27;;;;;;;11.02;7.40;;;19.80;99.90;;;;;;4979768;28;20190;-30
2023/08/18 01:23:00;;;;;;;7.95;7.15;;;19.80;99.90;;;;;;5009518;28;20198;-31
2023/08/18 01:25:26;;;;;;;7.05;6.35;;;19.70;99.90;;;;;;4981535;28;20212;-31
2023/08/18 01:27:54;;;;;;;9.50;6.97;;;19.80;99.90;;;;;;4982741;28;20213;-30
2023/08/18 01:30:23;;;;;;;7.90;6.80;;;19.80;99.90;;;;;;5005292;28;20175;-30
2023/08/18 01:32:51;;;;;;;7.30;6.60;;;19.70;99.90;;;;;;4978139;28;20258;-31
2023/08/18 01:35:20;;;;;;;7.47;6.75;;;19.70;99.90;;;;;;4977785;28;20182;-31
2023/08/18 01:37:47;;;;;;;7.50;6.80;;;19.60;99.90;;;;;;4984000;28;20210;-30
2023/08/18 01:40:16;;;;;;;8.20;7.38;;;19.60;99.90;;;;;;4991804;28;20198;-30
2023/08/18 01:42:42;;;;;;;8.07;6.88;;;19.60;99.90;;;;;;4993243;28;20199;-30
2023/08/18 01:45:11;;;;;;;8.77;6.40;;;19.60;99.90;;;;;;4982176;28;20188;-31
2023/08/18 01:47:38;;;;;;;7.57;6.55;;;19.60;99.90;;;;;;4993823;28;20207;-31
2023/08/18 01:50:04;;;;;;;8.23;7.28;;;19.50;99.90;;;;;;4978747;28;20700;-31
2023/08/18 01:52:30;;;;;;;8.35;7.43;;;19.50;99.90;;;;;;5006006;28;20177;-31
2023/08/18 01:54:56;;;;;;;8.02;6.85;;;19.50;99.90;;;;;;4983403;28;20730;-31
2023/08/18 01:57:21;;;;;;;9.25;7.72;;;19.50;99.90;;;;;;4982639;28;20204;-30
2023/08/18 01:59:47;;;;;;;8.85;7.50;;;19.40;99.90;;;;;;4985187;28;20269;-31
2023/08/18 02:02:13;;;;;;;10.80;7.38;;;19.40;99.90;;;;;;4982465;28;20187;-31
2023/08/18 02:04:39;;;;;;;7.97;6.85;;;19.40;99.90;;;;;;4983357;28;20307;-31
2023/08/18 02:07:05;;;;;;;7.50;6.70;;;19.40;99.90;;;;;;5008661;28;20216;-29
2023/08/18 02:09:31;;;;;;;8.05;6.60;;;19.40;99.90;;;;;;4991990;28;20180;-30
2023/08/18 02:11:57;;;;;;;6.13;5.53;;;19.30;99.90;;;;;;5007575;28;20188;-30
2023/08/18 02:14:22;;;;;;;8.50;6.57;;;19.30;99.90;;;;;;5007683;28;20210;-30
2023/08/18 02:16:48;;;;;;;7.22;6.53;;;19.20;99.90;;;;;;5007251;28;20309;-31
2023/08/18 02:19:14;;;;;;;7.18;6.30;;;19.10;99.90;;;;;;4989015;28;20198;-30
2023/08/18 02:21:40;;;;;;;7.55;6.20;;;19.10;99.90;;;;;;4976321;28;20180;-30
2023/08/18 02:24:06;;;;;;;6.93;6.22;;;19.10;99.90;;;;;;4983507;28;20186;-30
2023/08/18 02:26:34;;;;;;;7.90;6.53;;;19.10;99.90;;;;;;4981976;28;20176;-29
2023/08/18 02:28:59;;;;;;;7.63;6.22;;;19.00;99.90;;;;;;5006467;28;20283;-30
2023/08/18 02:31:25;;;;;;;7.15;6.55;;;19.00;99.90;;;;;;5005105;28;20176;-30
2023/08/18 02:33:51;;;;;;;7.43;6.82;;;19.00;99.90;;;;;;4983318;28;20175;-29
2023/08/18 02:36:17;;;;;;;8.77;6.93;;;19.00;99.90;;;;;;4980459;28;20176;-29
2023/08/18 02:38:45;;;;;;;8.75;6.43;;;19.00;99.90;;;;;;5007382;28;20271;-30
2023/08/18 02:41:11;;;;;;;6.45;5.82;;;18.90;99.90;;;;;;4990251;28;20184;-29
2023/08/18 02:43:38;;;;;;;8.98;6.35;;;18.80;99.90;;;;;;4988336;28;20265;-29
2023/08/18 02:46:04;;;;;;;8.45;6.68;;;18.80;99.90;;;;;;5006304;28;20314;-29
2023/08/18 02:48:30;;;;;;;6.63;5.97;;;18.80;99.90;;;;;;4983091;28;20753;-30
2023/08/18 02:51:07;;;;;;;6.88;6.18;;;18.70;99.90;;;;;;4990574;28;20214;-29
2023/08/18 02:53:33;;;;;;;7.05;6.35;;;18.60;99.90;;;;;;4988656;28;21048;-30
2023/08/18 02:56:00;;;;;;;6.63;6.05;;;18.60;99.90;;;;;;5005763;28;20184;-30
2023/08/18 02:58:28;;;;;;;7.63;6.13;;;18.60;99.90;;;;;;5007658;28;20263;-30
2023/08/18 03:01:02;;;;;;;7.97;6.25;;;18.50;99.90;;;;;;5006892;28;20201;-29
2023/08/18 03:03:28;;;;;;;6.85;6.22;;;18.50;99.90;;;;;;4983940;28;20190;-30
2023/08/18 03:05:53;;;;;;;6.07;5.53;;;18.50;99.90;;;;;;5006123;28;20274;-30
2023/08/18 03:08:19;;;;;;;6.47;5.80;;;18.50;99.90;;;;;;4990372;28;20207;-30
2023/08/18 03:10:58;;;;;;;7.07;6.13;;;18.50;99.90;;;;;;4973711;28;20187;-29
2023/08/18 03:13:25;;;;;;;8.45;6.20;;;18.50;99.90;;;;;;4976820;28;20191;-30
2023/08/18 03:15:51;;;;;;;6.80;6.20;;;18.50;99.90;;;;;;5005602;28;20195;-29
2023/08/18 03:18:17;;;;;;;8.02;6.28;;;18.50;99.90;;;;;;5005631;28;20277;-29
2023/08/18 03:20:46;;;;;;;7.93;6.47;;;18.50;99.90;;;;;;4982932;28;20258;-30
2023/08/18 03:23:17;;;;;;;6.80;6.10;;;18.50;99.90;;;;;;4976466;28;20282;-30
2023/08/18 03:25:43;;;;;;;8.88;6.50;;;18.50;99.90;;;;;;4976191;28;20179;-32
2023/08/18 03:28:13;;;;;;;7.70;6.60;;;18.40;99.90;;;;;;4989755;28;20219;-29
2023/08/18 03:30:39;;;;;;;9.07;6.15;;;18.40;99.90;;;;;;4989907;28;20187;-30
2023/08/18 03:33:06;;;;;;;6.13;5.57;;;18.40;99.90;;;;;;5004934;28;20274;-31
2023/08/18 03:35:35;;;;;;;6.72;5.55;;;18.40;99.90;;;;;;4978698;28;20176;-29
2023/08/18 03:38:04;;;;;;;6.50;5.80;;;18.40;99.90;;;;;;5004975;28;20215;-30
2023/08/18 03:40:32;;;;;;;7.75;6.18;;;18.40;99.90;;;;;;4973237;28;20187;-30
2023/08/18 03:42:57;;;;;;;6.50;5.90;;;18.40;99.90;;;;;;4982164;28;20214;-29
2023/08/18 03:45:23;;;;;;;6.60;5.95;;;18.30;99.90;;;;;;4978905;28;20219;-30
2023/08/18 03:47:51;;;;;;;6.63;5.82;;;18.20;99.90;;;;;;5002037;28;20221;-30
2023/08/18 03:50:21;;;;;;;9.15;5.78;;;18.20;99.90;;;;;;4978024;28;20179;-29
2023/08/18 03:52:47;;;;;;;7.05;6.20;;;18.20;99.90;;;;;;4991879;28;20287;-30
2023/08/18 03:55:14;;;;;;;8.48;6.93;;;18.10;99.90;;;;;;4982265;28;20176;-30
2023/08/18 03:57:40;;;;;;;8.43;7.22;;;18.10;99.90;;;;;;4967408;28;20222;-29
2023/08/18 04:00:09;;;;;;;8.45;7.50;;;18.10;99.90;;;;;;4979508;28;20183;-30
2023/08/18 04:02:39;;;;;;;8.93;7.22;;;18.10;99.90;;;;;;4992028;28;20195;-30
2023/08/18 04:05:07;;;;;;;7.88;7.13;;;18.00;99.90;;;;;;4982222;28;20245;-29
2023/08/18 04:07:33;;;;;;;10.35;6.93;;;18.10;99.90;;;;;;4981742;28;20212;-30
2023/08/18 04:09:59;;;;;;;8.35;6.47;;;18.10;99.90;;;;;;5003844;28;20179;-29
2023/08/18 04:12:25;;;;;;;6.80;6.20;;;18.10;99.90;;;;;;4985366;28;20256;-30
2023/08/18 04:14:51;;;;;;;6.82;6.20;;;18.10;99.90;;;;;;5005788;28;20206;-30
2023/08/18 04:17:17;;;;;;;8.77;6.50;;;18.10;99.90;;;;;;4989755;28;20230;-30
2023/08/18 04:19:45;;;;;;;9.55;5.88;;;18.10;99.90;;;;;;4996797;28;20195;-29
2023/08/18 04:22:11;;;;;;;6.38;5.78;;;18.10;99.90;;;;;;4989877;28;20214;-29
2023/08/18 04:24:37;;;;;;;6.30;5.80;;;18.10;99.90;;;;;;4981018;28;20658;-30
2023/08/18 04:27:03;;;;;;;6.10;5.32;;;18.10;99.90;;;;;;5005241;28;20241;-30
2023/08/18 04:29:30;;;;;;;6.80;6.10;;;18.00;99.90;;;;;;4979197;28;20208;-30
2023/08/18 04:31:56;;;;;;;6.78;6.10;;;18.00;99.90;;;;;;5003902;28;20188;-29
2023/08/18 04:34:22;;;;;;;6.50;5.70;;;17.90;99.90;;;;;;4990063;28;20258;-29
2023/08/18 04:36:48;;;;;;;7.63;6.93;;;17.90;99.90;;;;;;4981466;28;20667;-30
2023/08/18 04:39:15;;;;;;;8.20;7.47;;;17.90;99.90;;;;;;5005172;28;20192;-33
2023/08/18 04:41:41;;;;;;;13.13;7.55;;;17.90;99.90;;;;;;5002215;28;20208;-29
2023/08/18 04:44:07;;;;;;;8.52;7.45;;;17.90;99.90;;;;;;4993430;28;20211;-31
2023/08/18 04:46:33;;;;;;;9.27;7.40;;;17.80;99.90;;;;;;4990170;28;20176;-29
2023/08/18 04:49:04;;;;;;;10.13;7.47;;;17.90;99.90;;;;;;4980490;28;20180;-30
2023/08/18 04:51:30;;;;;;;10.75;7.35;;;17.90;99.90;;;;;;4980358;28;20183;-29
2023/08/18 04:53:56;;;;;;;8.25;7.28;;;18.00;99.90;;;;;;4980345;28;20195;-31
2023/08/18 04:56:22;;;;;;;9.18;8.23;;;18.00;99.90;;;;;;4988906;28;20187;-30
2023/08/18 04:58:48;;;;;;;7.72;7.03;;;18.10;99.90;;;;;;4973294;28;20203;-30
2023/08/18 05:01:15;;;;;;;9.00;7.35;;;18.00;99.90;;;;;;4992891;28;20179;-30
2023/08/18 05:03:41;;;;;;;9.50;7.72;;;18.00;99.90;;;;;;4982726;28;20189;-30
2023/08/18 05:06:10;;;;;;;10.40;8.00;;;18.10;99.90;;;;;;4977327;28;20177;-29
2023/08/18 05:08:37;;;;;;;9.10;7.50;;;18.00;99.90;;;;;;4978492;28;20207;-29
2023/08/18 05:11:05;;;;;;;8.15;7.30;;;18.00;99.90;;;;;;4977994;28;20180;-30
2023/08/18 05:13:32;;;;;;;8.38;7.00;;;18.10;99.90;;;;;;5004164;28;20202;-30
2023/08/18 05:16:08;;;;;;;8.80;7.97;;;18.10;99.90;;;;;;4969579;28;20181;-30
2023/08/18 05:18:36;;;;;;;9.20;8.30;;;18.10;99.90;;;;;;4983839;28;20223;-30
2023/08/18 05:21:06;;;;;;;8.35;7.57;;;18.10;99.90;;;;;;5002651;28;20208;-29
2023/08/18 05:23:33;;;;;;;9.30;7.93;;;18.10;99.90;;;;;;5006178;28;20179;-30
2023/08/18 05:26:00;;;;;;;9.43;8.23;;;18.10;99.90;;;;;;4973365;28;20187;-30
2023/08/18 05:28:32;;;;;;;9.20;7.88;;;18.10;99.90;;;;;;5005792;28;20305;-30
2023/08/18 05:30:59;;;;;;;7.35;6.63;;;18.10;99.90;;;;;;4976462;28;20183;-31
2023/08/18 05:33:25;;;;;;;7.00;6.40;;;18.20;99.90;;;;;;5004573;28;20195;-29
2023/08/18 05:35:51;;;;;;;9.30;5.72;;;18.30;99.90;;;;;;4981243;28;20184;-30
2023/08/18 05:38:17;;;;;;;6.30;5.70;;;18.30;99.90;;;;;;4980376;28;20208;-30
2023/08/18 05:40:49;;;;;;;6.15;5.65;;;18.30;99.90;;;;;;4974608;28;20189;-30
2023/08/18 05:43:18;;;;;;;5.30;4.90;;;18.30;99.90;;;;;;4989999;28;20179;-30
2023/08/18 05:45:46;;;;;;;6.35;5.53;;;18.40;99.90;;;;;;5005021;28;20180;-33
2023/08/18 05:48:13;;;;;;;6.97;5.82;;;18.50;99.90;;;;;;5003868;28;20271;-30
2023/08/18 05:50:40;;;;;;;6.50;5.88;;;18.60;99.90;;;;;;4979104;28;20268;-29
2023/08/18 05:53:06;;;;;;;7.05;6.07;;;18.60;99.90;;;;;;4978537;28;20211;-29
2023/08/18 05:55:32;;;;;;;6.97;5.97;;;18.60;99.90;;;;;;5003670;28;20203;-29
2023/08/18 05:58:04;;;;;;;7.63;6.05;;;18.70;99.90;;;;;;5004692;28;20203;-29
2023/08/18 06:00:30;;;;;;;9.75;6.35;;;18.80;99.90;;;;;;4990235;28;20181;-30
2023/08/18 06:02:57;;;;;;;9.35;6.00;;;18.80;99.90;;;;;;4982280;28;20188;-29
2023/08/18 06:05:28;;;;;;;7.55;6.10;;;18.90;99.90;;;;;;4994419;28;20215;-29
2023/08/18 06:07:54;;;;;;;6.68;5.30;;;18.90;99.90;;;;;;5000654;28;20208;-28
2023/08/18 06:10:20;;;;;;;7.15;5.85;;;18.90;99.90;;;;;;4986230;28;20180;-30
2023/08/18 06:12:46;;;;;;;7.53;5.10;;;18.90;99.90;;;;;;4984151;28;20276;-29
2023/08/18 06:15:12;;;;;;;7.20;4.75;;;19.00;99.90;;;;;;5016389;28;20262;-28
2023/08/18 06:17:38;;;;;;;5.45;4.95;;;19.10;99.90;;;;;;4989917;28;20230;-29
2023/08/18 06:20:05;;;;;;;7.32;4.85;;;19.20;99.90;;;;;;4979505;28;20199;-30
2023/08/18 06:22:30;;;;;;;5.13;4.60;;;19.20;99.90;;;;;;4988974;28;20190;-30
2023/08/18 06:24:57;;;;;;;4.85;4.30;;;19.30;99.90;;;;;;4982150;28;20258;-29
2023/08/18 06:27:23;;;;;;;7.25;4.50;;;19.30;99.90;;;;;;4982877;28;20279;-33
2023/08/18 06:29:49;;;;;;;4.85;4.05;;;19.40;99.90;;;;;;4982612;28;20651;-30
2023/08/18 06:32:15;;;;;;;6.55;4.75;;;19.50;99.90;;;;;;5007746;28;20194;-30
2023/08/18 06:34:41;;;;;;;5.20;4.20;;;19.50;99.90;;;;;;4982087;28;20215;-30
2023/08/18 06:37:07;;;;;;;5.38;4.88;;;19.50;99.90;;;;;;4981789;28;20670;-30
2023/08/18 06:39:32;;;;;;;5.05;4.53;;;19.70;99.90;;;;;;5005512;28;20187;-30
2023/08/18 06:41:58;;;;;;;5.38;4.68;;;19.70;99.90;;;;;;5005904;28;20196;-30
2023/08/18 06:44:24;;;;;;;5.78;4.40;;;19.80;99.90;;;;;;4992048;28;20180;-30
2023/08/18 06:46:50;;;;;;;5.93;4.47;;;19.90;99.90;;;;;;4987719;28;20216;-31
2023/08/18 06:49:16;;;;;;;7.07;4.40;;;20.00;99.90;;;;;;4981734;28;20191;-30
2023/08/18 06:51:42;;;;;;;4.90;4.28;;;20.10;99.90;;;;;;4978733;28;20180;-30
2023/08/18 06:54:07;;;;;;;5.47;3.88;;;20.30;99.90;;;;;;4978095;28;20193;-30
2023/08/18 06:56:36;;;;;;;9.30;4.47;;;20.50;99.90;;;;;;4994691;28;20317;-30
2023/08/18 06:59:02;;;;;;;4.78;3.97;;;20.60;99.90;;;;;;4978432;28;20274;-31
2023/08/18 07:01:28;;;;;;;4.63;3.83;;;20.70;99.90;;;;;;4972161;28;20188;-30
2023/08/18 07:03:53;;;;;;;4.70;3.70;;;20.70;99.90;;;;;;4981065;28;20183;-30
2023/08/18 07:06:20;;;;;;;4.50;4.10;;;20.90;99.90;;;;;;4980732;28;20216;-30
2023/08/18 07:08:46;;;;;;;5.70;3.50;;;21.00;99.90;;;;;;4982887;28;20243;-30
2023/08/18 07:11:12;;;;;;;8.57;4.07;;;21.10;99.90;;;;;;4974823;28;20205;-30
2023/08/18 07:13:37;;;;;;;4.88;3.53;;;21.20;99.90;;;;;;4981117;28;20286;-30
2023/08/18 07:16:07;;;;;;;5.00;3.85;;;21.20;99.90;;;;;;4987262;28;20275;-31
2023/08/18 07:18:34;;;;;;;4.22;3.58;;;21.30;99.90;;;;;;4982501;28;20226;-30
2023/08/18 07:21:00;;;;;;;5.25;3.72;;;21.40;99.90;;;;;;5004133;28;20247;-30
2023/08/18 07:23:26;;;;;;;3.92;3.53;;;21.50;99.90;;;;;;5003107;28;20188;-30
2023/08/18 07:25:53;;;;;;;5.90;3.80;;;21.60;99.90;;;;;;4981362;28;20188;-31
2023/08/18 07:28:18;;;;;;;4.50;4.03;;;21.80;99.90;;;;;;4990780;28;20214;-30
2023/08/18 07:30:44;;;;;;;5.45;4.10;;;21.90;99.90;;;;;;4982458;28;20190;-31
2023/08/18 07:33:10;;;;;;;5.28;3.47;;;22.00;99.90;;;;;;4981064;28;20242;-30
2023/08/18 07:35:37;;;;;;;4.28;3.60;;;22.20;99.90;;;;;;4997633;28;20187;-30
2023/08/18 07:38:02;;;;;;;4.68;4.00;;;22.30;99.90;;;;;;4982005;28;20207;-31
2023/08/18 07:40:28;;;;;;;5.05;3.60;;;22.30;99.90;;;;;;4982218;28;20202;-31
2023/08/18 07:42:54;;;;;;;8.80;3.72;;;22.40;99.90;;;;;;4978878;28;20187;-30
2023/08/18 07:45:22;;;;;;;4.60;3.60;;;22.40;99.90;;;;;;4989800;28;20215;-31
2023/08/18 07:47:48;;;;;;;4.65;3.55;;;22.50;99.90;;;;;;4976912;28;20208;-30
2023/08/18 07:50:14;;;;;;;4.47;3.72;;;22.50;99.90;;;;;;4981119;28;20186;-30
2023/08/18 07:52:41;;;;;;;6.82;3.58;;;22.60;99.90;;;;;;4992327;28;20315;-31
2023/08/18 07:55:08;;;;;;;4.63;3.42;;;22.80;99.90;;;;;;5006277;28;20184;-31
2023/08/18 07:57:35;;;;;;;4.32;3.72;;;22.90;99.90;;;;;;4993097;28;20239;-29
2023/08/18 08:00:14;;;;;;;5.40;3.83;;;23.00;99.90;;;;;;4987780;28;20239;-30
2023/08/18 08:02:41;;;;;;;5.43;4.03;;;23.20;99.90;;;;;;4987442;28;20184;-30
2023/08/18 08:05:08;;;;;;;4.50;3.60;;;23.30;99.90;;;;;;4991923;28;20187;-30
2023/08/18 08:07:34;;;;;;;4.50;3.92;;;23.40;99.90;;;;;;4974729;28;20203;-29
2023/08/18 08:10:04;;;;;;;5.63;3.95;;;23.50;99.90;;;;;;5010046;28;20185;-29
2023/08/18 08:12:31;;;;;;;4.50;3.72;;;23.60;99.90;;;;;;4996197;28;20279;-29
2023/08/18 08:15:03;;;;;;;4.95;4.05;;;23.70;99.90;;;;;;4998292;28;20188;-30
2023/08/18 08:17:34;;;;;;;3.80;3.50;;;24.00;99.90;;;;;;4970820;28;20690;-30
2023/08/18 08:20:14;;;;;;;5.35;3.40;;;24.10;99.90;;;;;;4977847;28;20199;-30
2023/08/18 08:22:46;;;;;;;5.85;3.60;;;24.20;99.90;;;;;;4999578;28;20245;-30
2023/08/18 08:25:15;;;;;;;4.50;3.72;;;24.20;99.90;;;;;;4983561;28;20180;-30
2023/08/18 08:27:42;;;;;;;5.00;3.72;;;24.30;99.90;;;;;;4968907;28;20212;-30
2023/08/18 08:30:11;;;;;;;5.13;3.55;;;24.50;99.90;;;;;;4987077;28;20176;-30
2023/08/18 08:32:37;;;;;;;3.95;3.40;;;24.60;99.90;;;;;;4981148;28;20223;-30
2023/08/18 08:35:03;;;;;;;4.00;3.60;;;24.60;99.90;;;;;;4981728;28;20273;-30
2023/08/18 08:37:37;;;;;;;4.82;3.22;;;24.80;99.90;;;;;;4988361;28;20236;-30
2023/08/18 08:40:06;;;;;;;4.53;3.63;;;24.90;99.90;;;;;;4991364;28;20197;-29
2023/08/18 08:42:32;;;;;;;3.70;3.40;;;25.10;99.90;;;;;;5007057;28;20187;-31
2023/08/18 08:45:01;;;;;;;4.97;3.20;;;25.20;99.90;;;;;;4990893;28;20265;-30
2023/08/18 08:47:30;;;;;;;3.85;3.40;;;25.40;99.90;;;;;;4993967;28;20216;-34
2023/08/18 08:50:01;;;;;;;3.95;3.50;;;25.60;99.90;;;;;;4968389;28;20191;-30
2023/08/18 08:52:33;;;;;;;4.22;3.40;;;25.80;99.90;;;;;;4987491;28;20195;-30
2023/08/18 08:55:02;;;;;;;6.97;3.13;;;26.00;99.90;;;;;;4990065;28;20184;-30
2023/08/18 08:57:28;;;;;;;4.32;3.67;;;26.10;99.90;;;;;;4990722;28;20199;-29
2023/08/18 08:59:54;;;;;;;5.95;3.25;;;26.30;99.90;;;;;;4990600;28;20186;-30
2023/08/18 09:02:21;;;;;;;4.00;3.38;;;26.40;99.90;;;;;;5008370;28;20230;-31
2023/08/18 09:04:48;;;;;;;3.88;3.53;;;26.60;99.90;;;;;;4994824;28;20176;-29
2023/08/18 09:07:14;;;;;;;4.25;3.38;;;26.60;99.90;;;;;;5004278;28;20227;-31
2023/08/18 09:09:41;;;;;;;7.38;3.38;;;26.70;99.90;;;;;;4985839;28;20196;-30
2023/08/18 09:12:08;;;;;;;4.97;3.67;;;26.70;99.90;;;;;;4958241;28;20188;-30
2023/08/18 09:14:35;;;;;;;6.88;3.55;;;26.80;99.90;;;;;;4986793;28;20183;-30
2023/08/18 09:17:04;;;;;;;7.55;3.70;;;26.90;99.90;;;;;;4992225;28;20242;-30
2023/08/18 09:19:31;;;;;;;4.43;3.25;;;26.90;99.90;;;;;;4988213;28;20187;-31
2023/08/18 09:21:59;;;;;;;4.40;3.25;;;27.00;99.90;;;;;;4984925;28;20247;-30
2023/08/18 09:24:26;;;;;;;5.80;3.97;;;27.10;99.90;;;;;;4991106;28;20186;-32
2023/08/18 09:26:53;;;;;;;7.30;3.88;;;27.20;99.90;;;;;;5003528;28;22124;-30
2023/08/18 09:29:20;;;;;;;5.60;3.60;;;27.30;99.90;;;;;;5003292;28;20191;-31
2023/08/18 09:31:47;;;;;;;5.05;3.03;;;27.50;99.90;;;;;;4999675;28;20175;-30
2023/08/18 09:34:20;;;;;;;6.68;3.10;;;27.60;99.90;;;;;;4992894;28;20214;-30
2023/08/18 09:36:56;;;;;;;3.17;2.80;;;27.80;99.90;;;;;;5001924;28;20196;-30
2023/08/18 09:39:25;;;;;;;3.85;3.33;;;28.00;99.90;;;;;;5003045;28;20211;-30
2023/08/18 09:41:53;;;;;;;3.80;2.88;;;28.00;99.90;;;;;;4968301;28;20288;-30
2023/08/18 09:44:20;;;;;;;6.78;2.95;;;28.00;99.90;;;;;;4973206;28;20177;-31
2023/08/18 09:46:54;;;;;;;5.25;3.13;;;28.10;99.90;;;;;;4999840;28;20207;-30
2023/08/18 09:49:22;;;;;;;3.05;2.72;;;28.20;99.90;;;;;;4994865;28;20188;-30
2023/08/18 09:51:53;;;;;;;4.50;2.88;;;28.20;99.90;;;;;;5000802;28;20176;-31
2023/08/18 09:54:22;;;;;;;4.38;3.10;;;28.30;99.90;;;;;;5007332;28;20179;-31
2023/08/18 09:56:59;;;;;;;4.75;2.72;;;28.40;99.90;;;;;;4989445;28;20402;-31
2023/08/18 09:59:38;;;;;;;4.63;3.20;;;28.50;99.90;;;;;;4998576;28;20187;-31
2023/08/18 10:02:05;;;;;;;3.60;3.00;;;28.60;99.90;;;;;;4991364;28;20208;-31
2023/08/18 10:04:39;;;;;;;5.15;2.75;;;28.60;99.90;;;;;;5003024;28;20666;-31
2023/08/18 10:07:12;;;;;;;3.92;3.17;;;28.70;99.90;;;;;;4985441;28;20211;-31
2023/08/18 10:09:42;;;;;;;3.53;2.90;;;28.80;99.90;;;;;;4991688;28;20196;-31
2023/08/18 10:12:10;;;;;;;3.00;2.70;;;28.90;99.90;;;;;;4989048;28;20222;-31
2023/08/18 10:14:36;;;;;;;3.35;3.05;;;28.90;99.90;;;;;;4987716;28;20188;-31
2023/08/18 10:17:03;;;;;;;3.00;2.70;;;29.00;99.90;;;;;;4985788;28;20222;-31
2023/08/18 10:19:44;;;;;;;3.63;2.60;;;29.20;99.90;;;;;;4975846;28;20188;-31
2023/08/18 10:22:11;;;;;;;4.63;2.85;;;29.40;99.90;;;;;;4990320;28;20274;-32
2023/08/18 10:24:37;;;;;;;4.53;2.83;;;29.40;99.90;;;;;;5006015;28;20646;-31
2023/08/18 10:27:07;;;;;;;3.22;2.90;;;29.40;99.90;;;;;;5002396;28;20235;-32
2023/08/18 10:29:34;;;;;;;4.97;2.95;;;29.60;99.90;;;;;;4997591;28;20270;-32
2023/08/18 10:32:08;;;;;;;5.20;3.15;;;29.50;99.90;;;;;;5000865;28;20184;-31
2023/08/18 10:34:37;;;;;;;2.58;2.38;;;29.70;99.90;;;;;;4990649;28;20206;-32
2023/08/18 10:37:07;;;;;;;3.85;2.88;;;29.90;99.90;;;;;;4969748;28;20281;-32
2023/08/18 10:39:40;;;;;;;3.97;2.60;;;30.10;99.90;;;;;;4977704;28;20183;-31
2023/08/18 10:42:15;;;;;;;3.67;2.63;;;30.30;99.90;;;;;;4987883;28;20275;-32
2023/08/18 10:45:03;;;;;;;4.00;2.45;;;30.30;99.90;;;;;;4989088;28;20254;-31
2023/08/18 10:47:34;;;;;;;2.90;2.55;;;30.40;99.90;;;;;;4985826;28;20234;-32
2023/08/18 10:50:04;;;;;;;3.58;2.80;;;30.60;99.90;;;;;;4986439;28;20179;-33
2023/08/18 10:52:31;;;;;;;4.10;2.78;;;30.70;99.90;;;;;;4973755;28;20176;-32
2023/08/18 10:54:57;;;;;;;4.70;2.72;;;30.80;99.90;;;;;;4995234;28;20223;-31
2023/08/18 10:57:23;;;;;;;4.95;2.80;;;30.90;99.90;;;;;;5005082;28;20214;-31
2023/08/18 10:59:52;;;;;;;3.63;2.70;;;31.10;99.90;;;;;;4994662;28;20227;-31
2023/08/18 11:02:18;;;;;;;3.53;2.67;;;31.10;99.90;;;;;;5003367;28;20645;-31
2023/08/18 11:04:44;;;;;;;3.45;2.53;;;31.10;99.90;;;;;;4974529;28;20245;-31
2023/08/18 11:07:10;;;;;;;4.32;2.50;;;31.30;99.90;;;;;;4980925;28;20215;-32
2023/08/18 11:09:36;;;;;;;3.17;2.60;;;31.30;99.90;;;;;;4994547;28;20206;-32
2023/08/18 11:12:03;;;;;;;4.10;2.33;;;31.30;99.90;;;;;;4976342;28;20176;-32
2023/08/18 11:14:30;;;;;;;4.95;2.65;;;31.20;99.90;;;;;;4976565;28;20204;-31
2023/08/18 11:16:56;;;;;;;3.65;2.35;;;31.30;99.90;;;;;;4986025;28;20208;-32
2023/08/18 11:19:22;;;;;;;6.68;2.75;;;31.20;99.90;;;;;;5004248;28;20191;-31
2023/08/18 11:21:48;;;;;;;4.47;2.50;;;31.40;99.90;;;;;;4983127;28;20187;-31
2023/08/18 11:24:13;;;;;;;3.58;2.40;;;31.60;99.90;;;;;;4993633;28;20251;-31
2023/08/18 11:26:40;;;;;;;5.30;2.40;;;31.80;99.90;;;;;;5003983;28;20187;-31
2023/08/18 11:29:07;;;;;;;6.40;2.72;;;31.90;99.90;;;;;;4998403;28;20180;-31
2023/08/18 11:31:33;;;;;;;4.80;2.40;;;32.00;99.90;;;;;;4987578;28;20337;-32
2023/08/18 11:33:59;;;;;;;4.65;2.72;;;32.00;99.90;;;;;;4995557;28;20714;-32
2023/08/18 11:36:32;;;;;;;3.03;2.13;;;32.00;99.90;;;;;;4976322;28;20240;-31
2023/08/18 11:39:12;;;;;;;3.75;2.45;;;32.20;99.90;;;;;;4995014;28;20190;-31
2023/08/18 11:41:44;;;;;;;5.57;2.28;;;32.40;99.90;;;;;;5000033;28;20179;-31
2023/08/18 11:44:11;;;;;;;5.60;2.38;;;32.60;99.90;;;;;;4995561;28;20188;-32
2023/08/18 11:46:39;;;;;;;4.07;2.10;;;32.60;99.90;;;;;;5000014;28;20186;-31
2023/08/18 11:49:16;;;;;;;4.97;2.00;;;32.70;99.90;;;;;;4970147;28;20176;-31
2023/08/18 11:52:05;;;;;;;2.60;2.08;;;32.70;99.90;;;;;;5002145;28;20175;-32
2023/08/18 11:54:36;;;;;;;4.15;2.30;;;32.80;99.90;;;;;;5003002;28;20214;-31
2023/08/18 11:57:04;;;;;;;5.50;2.72;;;32.70;99.90;;;;;;4996622;28;20203;-32
2023/08/18 11:59:30;;;;;;;3.45;2.10;;;32.50;99.90;;;;;;4968534;28;20254;-32
2023/08/18 12:01:59;;;;;;;3.38;2.42;;;32.70;99.90;;;;;;5002743;28;20275;-31
2023/08/18 12:04:30;;;;;;;4.22;2.78;;;32.60;99.90;;;;;;5003483;28;20211;-33
2023/08/18 12:06:57;;;;;;;3.67;2.40;;;32.60;99.90;;;;;;4986975;28;20281;-32
2023/08/18 12:09:35;;;;;;;3.30;2.17;;;32.80;99.90;;;;;;4997642;28;20178;-31
2023/08/18 12:12:13;;;;;;;5.32;2.60;;;33.00;99.90;;;;;;5008216;28;20262;-31
2023/08/18 12:14:38;;;;;;;5.13;2.60;;;33.10;99.90;;;;;;4982189;28;20179;-31
2023/08/18 12:17:05;;;;;;;3.97;2.30;;;33.30;99.90;;;;;;5004812;28;20214;-32
2023/08/18 12:19:34;;;;;;;3.63;2.25;;;33.60;99.90;;;;;;4993091;28;20189;-31
2023/08/18 12:22:00;;;;;;;5.30;2.53;;;33.80;99.90;;;;;;5004160;28;20273;-32
2023/08/18 12:24:26;;;;;;;5.93;2.40;;;33.80;99.90;;;;;;4978425;28;20196;-32
2023/08/18 12:26:52;;;;;;;6.00;2.70;;;33.80;99.90;;;;;;4991932;28;20207;-32
2023/08/18 12:29:17;;;;;;;5.57;2.63;;;33.70;99.90;;;;;;5006434;28;20210;-32
2023/08/18 12:31:43;;;;;;;5.25;2.70;;;33.70;99.90;;;;;;4986816;28;20183;-32
2023/08/18 12:34:09;;;;;;;4.50;2.40;;;33.80;99.90;;;;;;4980555;28;20188;-32
2023/08/18 12:36:35;;;;;;;6.85;2.38;;;33.90;99.90;;;;;;4985364;28;20180;-32
2023/08/18 12:39:01;;;;;;;7.50;2.67;;;34.10;99.90;;;;;;5008722;28;20258;-32
2023/08/18 12:41:28;;;;;;;6.10;2.40;;;34.10;99.90;;;;;;4981555;28;20270;-33
2023/08/18 12:43:54;;;;;;;5.55;2.80;;;34.20;99.90;;;;;;4989592;28;20642;-32
2023/08/18 12:46:20;;;;;;;7.15;2.58;;;34.30;99.90;;;;;;5005337;28;20187;-32
2023/08/18 12:48:46;;;;;;;4.53;3.05;;;34.20;99.90;;;;;;4985004;28;20216;-32